sensor_id;sensor_type;location;lat;lon;timestamp;P1;durP1;ratioP1;P2;durP2;ratioP2
21890;SDS011;11110;52.386;16.940;2022-10-16T00:01:22;156.27;;;72.55;;
21890;SDS011;11110;52.386;16.940;2022-10-16T00:03:51;165.07;;;74.68;;
21890;SDS011;11110;52.386;16.940;2022-10-16T00:06:21;157.23;;;72.75;;
21890;SDS011;11110;52.386;16.940;2022-10-16T00:08:50;157.75;;;74.03;;
21890;SDS011;11110;52.386;16.940;2022-10-16T00:11:19;157.82;;;72.45;;
21890;SDS011;11110;52.386;16.940;2022-10-16T00:13:50;160.32;;;73.28;;
21890;SDS011;11110;52.386;16.940;2022-10-16T00:16:21;163.70;;;75.40;;
21890;SDS011;11110;52.386;16.940;2022-10-16T00:18:49;162.02;;;74.35;;
21890;SDS011;11110;52.386;16.940;2022-10-16T00:21:19;158.18;;;73.55;;
21890;SDS011;11110;52.386;16.940;2022-10-16T00:23:50;165.10;;;73.32;;
21890;SDS011;11110;52.386;16.940;2022-10-16T00:26:19;168.73;;;73.85;;
21890;SDS011;11110;52.386;16.940;2022-10-16T00:28:47;165.20;;;73.15;;
21890;SDS011;11110;52.386;16.940;2022-10-16T00:31:17;165.35;;;73.63;;
21890;SDS011;11110;52.386;16.940;2022-10-16T00:33:47;163.70;;;73.68;;
21890;SDS011;11110;52.386;16.940;2022-10-16T00:36:17;163.57;;;72.07;;
21890;SDS011;11110;52.386;16.940;2022-10-16T00:38:47;166.95;;;73.70;;
21890;SDS011;11110;52.386;16.940;2022-10-16T00:41:20;166.77;;;72.80;;
21890;SDS011;11110;52.386;16.940;2022-10-16T00:43:49;172.98;;;73.95;;
21890;SDS011;11110;52.386;16.940;2022-10-16T00:46:20;169.70;;;73.30;;
21890;SDS011;11110;52.386;16.940;2022-10-16T00:48:53;155.68;;;72.88;;
21890;SDS011;11110;52.386;16.940;2022-10-16T00:51:25;165.57;;;73.05;;
21890;SDS011;11110;52.386;16.940;2022-10-16T00:53:57;182.05;;;75.47;;
21890;SDS011;11110;52.386;16.940;2022-10-16T00:56:27;162.82;;;75.72;;
21890;SDS011;11110;52.386;16.940;2022-10-16T00:58:55;161.20;;;72.38;;
21890;SDS011;11110;52.386;16.940;2022-10-16T01:01:24;164.40;;;73.45;;
21890;SDS011;11110;52.386;16.940;2022-10-16T01:03:54;159.63;;;72.32;;
21890;SDS011;11110;52.386;16.940;2022-10-16T01:06:23;159.25;;;72.00;;
21890;SDS011;11110;52.386;16.940;2022-10-16T01:11:45;159.32;;;72.30;;
21890;SDS011;11110;52.386;16.940;2022-10-16T01:14:22;171.80;;;75.60;;
21890;SDS011;11110;52.386;16.940;2022-10-16T01:16:55;162.02;;;73.22;;
21890;SDS011;11110;52.386;16.940;2022-10-16T01:19:35;155.13;;;71.50;;
21890;SDS011;11110;52.386;16.940;2022-10-16T01:22:11;159.10;;;72.43;;
21890;SDS011;11110;52.386;16.940;2022-10-16T01:24:42;160.85;;;71.38;;
21890;SDS011;11110;52.386;16.940;2022-10-16T01:27:20;150.13;;;68.97;;
21890;SDS011;11110;52.386;16.940;2022-10-16T01:29:54;163.23;;;72.18;;
21890;SDS011;11110;52.386;16.940;2022-10-16T01:32:28;154.60;;;70.55;;
21890;SDS011;11110;52.386;16.940;2022-10-16T01:35:02;162.80;;;72.47;;
21890;SDS011;11110;52.386;16.940;2022-10-16T01:37:34;164.52;;;73.15;;
21890;SDS011;11110;52.386;16.940;2022-10-16T01:40:07;152.95;;;70.05;;
21890;SDS011;11110;52.386;16.940;2022-10-16T01:42:40;160.68;;;72.05;;
21890;SDS011;11110;52.386;16.940;2022-10-16T01:45:12;150.80;;;70.47;;
21890;SDS011;11110;52.386;16.940;2022-10-16T01:47:45;164.73;;;72.82;;
21890;SDS011;11110;52.386;16.940;2022-10-16T01:50:15;154.40;;;70.60;;
21890;SDS011;11110;52.386;16.940;2022-10-16T01:52:46;151.07;;;69.57;;
21890;SDS011;11110;52.386;16.940;2022-10-16T01:55:21;164.80;;;72.38;;
21890;SDS011;11110;52.386;16.940;2022-10-16T01:57:54;159.15;;;71.05;;
21890;SDS011;11110;52.386;16.940;2022-10-16T02:00:24;159.88;;;70.63;;
21890;SDS011;11110;52.386;16.940;2022-10-16T02:02:53;159.63;;;71.18;;
21890;SDS011;11110;52.386;16.940;2022-10-16T02:05:24;160.27;;;71.00;;
21890;SDS011;11110;52.386;16.940;2022-10-16T02:07:56;159.82;;;71.18;;
21890;SDS011;11110;52.386;16.940;2022-10-16T02:10:28;164.93;;;73.05;;
21890;SDS011;11110;52.386;16.940;2022-10-16T02:13:01;187.48;;;76.38;;
21890;SDS011;11110;52.386;16.940;2022-10-16T02:15:33;157.93;;;70.72;;
21890;SDS011;11110;52.386;16.940;2022-10-16T02:18:02;165.20;;;72.38;;
21890;SDS011;11110;52.386;16.940;2022-10-16T02:20:32;161.77;;;72.47;;
21890;SDS011;11110;52.386;16.940;2022-10-16T02:23:04;165.05;;;73.25;;
21890;SDS011;11110;52.386;16.940;2022-10-16T02:25:37;151.38;;;70.28;;
21890;SDS011;11110;52.386;16.940;2022-10-16T02:28:11;157.23;;;70.18;;
21890;SDS011;11110;52.386;16.940;2022-10-16T02:30:46;165.88;;;72.13;;
21890;SDS011;11110;52.386;16.940;2022-10-16T02:33:19;156.40;;;70.57;;
21890;SDS011;11110;52.386;16.940;2022-10-16T02:35:50;157.57;;;71.00;;
21890;SDS011;11110;52.386;16.940;2022-10-16T02:38:19;154.52;;;69.88;;
21890;SDS011;11110;52.386;16.940;2022-10-16T02:40:49;155.20;;;70.43;;
21890;SDS011;11110;52.386;16.940;2022-10-16T02:43:19;155.40;;;71.00;;
21890;SDS011;11110;52.386;16.940;2022-10-16T02:45:47;172.80;;;74.35;;
21890;SDS011;11110;52.386;16.940;2022-10-16T02:48:16;156.82;;;70.78;;
21890;SDS011;11110;52.386;16.940;2022-10-16T02:50:44;160.07;;;72.28;;
21890;SDS011;11110;52.386;16.940;2022-10-16T02:53:12;168.77;;;72.53;;
21890;SDS011;11110;52.386;16.940;2022-10-16T02:55:40;159.23;;;71.50;;
21890;SDS011;11110;52.386;16.940;2022-10-16T02:58:09;159.80;;;72.80;;
21890;SDS011;11110;52.386;16.940;2022-10-16T03:00:38;173.90;;;75.70;;
21890;SDS011;11110;52.386;16.940;2022-10-16T03:03:07;163.32;;;72.25;;
21890;SDS011;11110;52.386;16.940;2022-10-16T03:05:35;162.88;;;72.47;;
21890;SDS011;11110;52.386;16.940;2022-10-16T03:08:04;162.32;;;72.25;;
21890;SDS011;11110;52.386;16.940;2022-10-16T03:10:32;156.52;;;71.00;;
21890;SDS011;11110;52.386;16.940;2022-10-16T03:13:00;158.32;;;72.13;;
21890;SDS011;11110;52.386;16.940;2022-10-16T03:15:29;167.13;;;73.30;;
21890;SDS011;11110;52.386;16.940;2022-10-16T03:17:58;160.55;;;71.75;;
21890;SDS011;11110;52.386;16.940;2022-10-16T03:20:27;160.30;;;72.93;;
21890;SDS011;11110;52.386;16.940;2022-10-16T03:22:55;161.93;;;72.20;;
21890;SDS011;11110;52.386;16.940;2022-10-16T03:25:23;157.40;;;71.78;;
21890;SDS011;11110;52.386;16.940;2022-10-16T03:27:52;158.02;;;70.60;;
21890;SDS011;11110;52.386;16.940;2022-10-16T03:30:20;157.23;;;71.85;;
21890;SDS011;11110;52.386;16.940;2022-10-16T03:32:48;165.18;;;72.63;;
21890;SDS011;11110;52.386;16.940;2022-10-16T03:35:22;159.30;;;71.90;;
21890;SDS011;11110;52.386;16.940;2022-10-16T03:37:51;161.07;;;72.68;;
21890;SDS011;11110;52.386;16.940;2022-10-16T03:40:19;163.68;;;72.50;;
21890;SDS011;11110;52.386;16.940;2022-10-16T03:42:47;163.30;;;72.35;;
21890;SDS011;11110;52.386;16.940;2022-10-16T03:45:15;160.85;;;71.78;;
21890;SDS011;11110;52.386;16.940;2022-10-16T03:47:44;158.65;;;72.28;;
21890;SDS011;11110;52.386;16.940;2022-10-16T03:50:14;154.82;;;71.85;;
21890;SDS011;11110;52.386;16.940;2022-10-16T03:52:43;160.75;;;72.82;;
21890;SDS011;11110;52.386;16.940;2022-10-16T03:55:12;158.77;;;70.90;;
21890;SDS011;11110;52.386;16.940;2022-10-16T03:57:40;165.02;;;73.25;;
21890;SDS011;11110;52.386;16.940;2022-10-16T04:00:09;162.38;;;71.65;;
21890;SDS011;11110;52.386;16.940;2022-10-16T04:02:38;160.13;;;72.45;;
21890;SDS011;11110;52.386;16.940;2022-10-16T04:05:07;164.88;;;73.47;;
21890;SDS011;11110;52.386;16.940;2022-10-16T04:07:36;165.40;;;73.32;;
21890;SDS011;11110;52.386;16.940;2022-10-16T04:10:07;172.30;;;75.35;;
21890;SDS011;11110;52.386;16.940;2022-10-16T04:12:35;168.27;;;73.30;;
21890;SDS011;11110;52.386;16.940;2022-10-16T04:15:04;158.52;;;73.57;;
21890;SDS011;11110;52.386;16.940;2022-10-16T04:17:32;167.25;;;73.55;;
21890;SDS011;11110;52.386;16.940;2022-10-16T04:20:01;161.25;;;72.57;;
21890;SDS011;11110;52.386;16.940;2022-10-16T04:22:29;164.93;;;73.97;;
21890;SDS011;11110;52.386;16.940;2022-10-16T04:24:57;162.88;;;75.10;;
21890;SDS011;11110;52.386;16.940;2022-10-16T04:27:27;161.75;;;73.30;;
21890;SDS011;11110;52.386;16.940;2022-10-16T04:29:57;158.45;;;72.38;;
21890;SDS011;11110;52.386;16.940;2022-10-16T04:32:26;174.55;;;75.43;;
21890;SDS011;11110;52.386;16.940;2022-10-16T04:34:54;167.10;;;72.60;;
21890;SDS011;11110;52.386;16.940;2022-10-16T04:37:23;169.27;;;74.95;;
21890;SDS011;11110;52.386;16.940;2022-10-16T04:39:53;166.60;;;74.57;;
21890;SDS011;11110;52.386;16.940;2022-10-16T04:42:22;162.52;;;72.88;;
21890;SDS011;11110;52.386;16.940;2022-10-16T04:44:51;164.38;;;72.97;;
21890;SDS011;11110;52.386;16.940;2022-10-16T04:47:20;170.80;;;74.00;;
21890;SDS011;11110;52.386;16.940;2022-10-16T04:49:48;164.95;;;73.82;;
21890;SDS011;11110;52.386;16.940;2022-10-16T04:52:16;124.75;;;72.93;;
21890;SDS011;11110;52.386;16.940;2022-10-16T04:54:45;168.88;;;73.82;;
21890;SDS011;11110;52.386;16.940;2022-10-16T04:57:13;164.57;;;73.20;;
21890;SDS011;11110;52.386;16.940;2022-10-16T04:59:41;165.20;;;73.53;;
21890;SDS011;11110;52.386;16.940;2022-10-16T05:02:11;162.90;;;72.78;;
21890;SDS011;11110;52.386;16.940;2022-10-16T05:04:39;156.40;;;71.97;;
21890;SDS011;11110;52.386;16.940;2022-10-16T05:07:08;158.35;;;73.47;;
21890;SDS011;11110;52.386;16.940;2022-10-16T05:09:36;162.70;;;75.10;;
21890;SDS011;11110;52.386;16.940;2022-10-16T05:12:04;154.80;;;71.60;;
21890;SDS011;11110;52.386;16.940;2022-10-16T05:14:33;154.02;;;71.28;;
21890;SDS011;11110;52.386;16.940;2022-10-16T05:17:01;155.77;;;72.57;;
21890;SDS011;11110;52.386;16.940;2022-10-16T05:19:31;162.88;;;73.30;;
21890;SDS011;11110;52.386;16.940;2022-10-16T05:21:59;160.70;;;72.10;;
21890;SDS011;11110;52.386;16.940;2022-10-16T05:24:27;159.38;;;72.38;;
21890;SDS011;11110;52.386;16.940;2022-10-16T05:26:56;155.02;;;72.28;;
21890;SDS011;11110;52.386;16.940;2022-10-16T05:29:24;155.20;;;71.55;;
21890;SDS011;11110;52.386;16.940;2022-10-16T05:31:53;163.63;;;75.35;;
21890;SDS011;11110;52.386;16.940;2022-10-16T05:34:21;164.18;;;73.07;;
21890;SDS011;11110;52.386;16.940;2022-10-16T05:36:51;157.00;;;71.75;;
21890;SDS011;11110;52.386;16.940;2022-10-16T05:39:19;158.15;;;72.25;;
21890;SDS011;11110;52.386;16.940;2022-10-16T05:41:49;161.35;;;73.55;;
21890;SDS011;11110;52.386;16.940;2022-10-16T05:44:17;159.52;;;72.75;;
21890;SDS011;11110;52.386;16.940;2022-10-16T05:46:46;157.73;;;71.38;;
21890;SDS011;11110;52.386;16.940;2022-10-16T05:49:14;180.88;;;76.57;;
21890;SDS011;11110;52.386;16.940;2022-10-16T05:51:43;158.82;;;71.78;;
21890;SDS011;11110;52.386;16.940;2022-10-16T05:54:13;156.68;;;72.63;;
21890;SDS011;11110;52.386;16.940;2022-10-16T05:56:43;159.27;;;71.93;;
21890;SDS011;11110;52.386;16.940;2022-10-16T05:59:11;158.65;;;72.47;;
21890;SDS011;11110;52.386;16.940;2022-10-16T06:01:40;151.18;;;71.82;;
21890;SDS011;11110;52.386;16.940;2022-10-16T06:04:08;156.75;;;72.03;;
21890;SDS011;11110;52.386;16.940;2022-10-16T06:06:42;159.35;;;72.43;;
21890;SDS011;11110;52.386;16.940;2022-10-16T06:09:10;157.05;;;72.20;;
21890;SDS011;11110;52.386;16.940;2022-10-16T06:11:40;155.85;;;81.22;;
21890;SDS011;11110;52.386;16.940;2022-10-16T06:14:08;159.38;;;78.78;;
21890;SDS011;11110;52.386;16.940;2022-10-16T06:16:37;159.98;;;80.80;;
21890;SDS011;11110;52.386;16.940;2022-10-16T06:19:06;169.00;;;79.40;;
21890;SDS011;11110;52.386;16.940;2022-10-16T06:21:34;159.15;;;79.80;;
21890;SDS011;11110;52.386;16.940;2022-10-16T06:24:03;164.88;;;78.32;;
21890;SDS011;11110;52.386;16.940;2022-10-16T06:26:31;168.30;;;81.68;;
21890;SDS011;11110;52.386;16.940;2022-10-16T06:29:01;168.27;;;78.45;;
21890;SDS011;11110;52.386;16.940;2022-10-16T06:31:30;165.38;;;83.05;;
21890;SDS011;11110;52.386;16.940;2022-10-16T06:34:00;163.30;;;77.43;;
21890;SDS011;11110;52.386;16.940;2022-10-16T06:36:31;159.20;;;72.78;;
21890;SDS011;11110;52.386;16.940;2022-10-16T06:38:59;160.35;;;73.78;;
21890;SDS011;11110;52.386;16.940;2022-10-16T06:41:27;161.23;;;72.32;;
21890;SDS011;11110;52.386;16.940;2022-10-16T06:43:57;179.85;;;75.97;;
21890;SDS011;11110;52.386;16.940;2022-10-16T06:46:27;155.27;;;72.03;;
21890;SDS011;11110;52.386;16.940;2022-10-16T06:48:55;168.95;;;86.90;;
21890;SDS011;11110;52.386;16.940;2022-10-16T06:51:23;142.85;;;75.80;;
21890;SDS011;11110;52.386;16.940;2022-10-16T06:53:53;115.68;;;71.78;;
21890;SDS011;11110;52.386;16.940;2022-10-16T06:56:31;102.53;;;69.13;;
21890;SDS011;11110;52.386;16.940;2022-10-16T06:59:01;89.20;;;63.95;;
21890;SDS011;11110;52.386;16.940;2022-10-16T07:01:31;84.40;;;63.72;;
21890;SDS011;11110;52.386;16.940;2022-10-16T07:04:00;69.18;;;57.35;;
21890;SDS011;11110;52.386;16.940;2022-10-16T07:06:30;65.22;;;56.50;;
21890;SDS011;11110;52.386;16.940;2022-10-16T07:09:04;65.35;;;55.47;;
21890;SDS011;11110;52.386;16.940;2022-10-16T07:11:35;59.58;;;52.50;;
21890;SDS011;11110;52.386;16.940;2022-10-16T07:14:04;54.85;;;49.58;;
21890;SDS011;11110;52.386;16.940;2022-10-16T07:16:38;55.75;;;50.28;;
21890;SDS011;11110;52.386;16.940;2022-10-16T07:19:06;54.70;;;49.40;;
21890;SDS011;11110;52.386;16.940;2022-10-16T07:21:35;50.35;;;45.78;;
21890;SDS011;11110;52.386;16.940;2022-10-16T07:24:04;53.70;;;48.15;;
21890;SDS011;11110;52.386;16.940;2022-10-16T07:26:35;52.10;;;45.88;;
21890;SDS011;11110;52.386;16.940;2022-10-16T07:29:06;58.72;;;49.90;;
21890;SDS011;11110;52.386;16.940;2022-10-16T07:31:40;47.97;;;43.58;;
21890;SDS011;11110;52.386;16.940;2022-10-16T07:34:09;46.50;;;41.65;;
21890;SDS011;11110;52.386;16.940;2022-10-16T07:36:38;46.30;;;41.53;;
21890;SDS011;11110;52.386;16.940;2022-10-16T07:39:11;44.17;;;38.95;;
21890;SDS011;11110;52.386;16.940;2022-10-16T07:41:39;37.30;;;33.67;;
21890;SDS011;11110;52.386;16.940;2022-10-16T07:44:08;33.10;;;29.85;;
21890;SDS011;11110;52.386;16.940;2022-10-16T07:46:36;32.78;;;29.42;;
21890;SDS011;11110;52.386;16.940;2022-10-16T07:49:06;31.55;;;27.30;;
21890;SDS011;11110;52.386;16.940;2022-10-16T07:51:34;31.15;;;25.45;;
21890;SDS011;11110;52.386;16.940;2022-10-16T07:54:04;34.17;;;25.85;;
21890;SDS011;11110;52.386;16.940;2022-10-16T07:56:33;35.38;;;23.30;;
21890;SDS011;11110;52.386;16.940;2022-10-16T07:59:05;24.42;;;20.65;;
21890;SDS011;11110;52.386;16.940;2022-10-16T08:01:33;30.35;;;22.73;;
21890;SDS011;11110;52.386;16.940;2022-10-16T08:04:02;41.13;;;25.02;;
21890;SDS011;11110;52.386;16.940;2022-10-16T08:06:34;22.08;;;19.65;;
21890;SDS011;11110;52.386;16.940;2022-10-16T08:09:04;31.00;;;22.00;;
21890;SDS011;11110;52.386;16.940;2022-10-16T08:11:32;42.97;;;23.80;;
21890;SDS011;11110;52.386;16.940;2022-10-16T08:14:01;30.85;;;21.73;;
21890;SDS011;11110;52.386;16.940;2022-10-16T08:16:30;22.33;;;18.95;;
21890;SDS011;11110;52.386;16.940;2022-10-16T08:18:58;33.45;;;20.08;;
21890;SDS011;11110;52.386;16.940;2022-10-16T08:21:26;24.45;;;15.50;;
21890;SDS011;11110;52.386;16.940;2022-10-16T08:23:56;33.58;;;15.93;;
21890;SDS011;11110;52.386;16.940;2022-10-16T08:26:26;36.10;;;13.43;;
21890;SDS011;11110;52.386;16.940;2022-10-16T08:28:55;29.92;;;12.20;;
21890;SDS011;11110;52.386;16.940;2022-10-16T08:31:24;23.17;;;11.68;;
21890;SDS011;11110;52.386;16.940;2022-10-16T08:33:53;32.00;;;12.43;;
21890;SDS011;11110;52.386;16.940;2022-10-16T08:36:22;20.85;;;10.75;;
21890;SDS011;11110;52.386;16.940;2022-10-16T08:38:50;25.55;;;11.32;;
21890;SDS011;11110;52.386;16.940;2022-10-16T08:41:30;27.55;;;11.82;;
21890;SDS011;11110;52.386;16.940;2022-10-16T08:44:20;26.77;;;10.95;;
21890;SDS011;11110;52.386;16.940;2022-10-16T08:47:04;22.88;;;10.20;;
21890;SDS011;11110;52.386;16.940;2022-10-16T08:49:40;22.70;;;10.60;;
21890;SDS011;11110;52.386;16.940;2022-10-16T08:52:14;23.00;;;10.85;;
21890;SDS011;11110;52.386;16.940;2022-10-16T08:54:43;27.88;;;10.60;;
21890;SDS011;11110;52.386;16.940;2022-10-16T08:57:17;27.80;;;11.25;;
21890;SDS011;11110;52.386;16.940;2022-10-16T08:59:50;21.90;;;9.90;;
21890;SDS011;11110;52.386;16.940;2022-10-16T09:02:26;25.38;;;9.93;;
21890;SDS011;11110;52.386;16.940;2022-10-16T09:07:51;28.17;;;9.52;;
21890;SDS011;11110;52.386;16.940;2022-10-16T09:10:35;19.40;;;8.80;;
21890;SDS011;11110;52.386;16.940;2022-10-16T09:13:16;27.17;;;9.48;;
21890;SDS011;11110;52.386;16.940;2022-10-16T09:15:50;22.80;;;8.95;;
21890;SDS011;11110;52.386;16.940;2022-10-16T09:18:24;25.40;;;9.25;;
21890;SDS011;11110;52.386;16.940;2022-10-16T09:20:59;27.95;;;9.25;;
21890;SDS011;11110;52.386;16.940;2022-10-16T09:23:34;25.42;;;8.20;;
21890;SDS011;11110;52.386;16.940;2022-10-16T09:26:04;23.02;;;8.40;;
21890;SDS011;11110;52.386;16.940;2022-10-16T09:28:38;19.40;;;8.02;;
21890;SDS011;11110;52.386;16.940;2022-10-16T09:31:09;20.98;;;8.40;;
21890;SDS011;11110;52.386;16.940;2022-10-16T09:33:43;25.90;;;9.38;;
21890;SDS011;11110;52.386;16.940;2022-10-16T09:36:13;27.17;;;8.82;;
21890;SDS011;11110;52.386;16.940;2022-10-16T09:38:42;30.33;;;9.60;;
21890;SDS011;11110;52.386;16.940;2022-10-16T09:41:13;35.70;;;9.90;;
21890;SDS011;11110;52.386;16.940;2022-10-16T09:43:52;18.23;;;7.45;;
21890;SDS011;11110;52.386;16.940;2022-10-16T09:46:26;25.98;;;8.63;;
21890;SDS011;11110;52.386;16.940;2022-10-16T09:48:57;17.45;;;7.90;;
21890;SDS011;11110;52.386;16.940;2022-10-16T09:51:28;19.75;;;6.82;;
21890;SDS011;11110;52.386;16.940;2022-10-16T09:53:59;22.17;;;7.07;;
21890;SDS011;11110;52.386;16.940;2022-10-16T09:56:29;42.65;;;9.57;;
21890;SDS011;11110;52.386;16.940;2022-10-16T09:59:01;18.08;;;6.88;;
21890;SDS011;11110;52.386;16.940;2022-10-16T10:01:39;18.33;;;6.95;;
21890;SDS011;11110;52.386;16.940;2022-10-16T10:04:09;19.35;;;6.63;;
21890;SDS011;11110;52.386;16.940;2022-10-16T10:06:41;32.83;;;8.93;;
21890;SDS011;11110;52.386;16.940;2022-10-16T10:09:16;25.20;;;8.02;;
21890;SDS011;11110;52.386;16.940;2022-10-16T10:11:51;18.80;;;6.43;;
21890;SDS011;11110;52.386;16.940;2022-10-16T10:14:27;26.92;;;7.70;;
21890;SDS011;11110;52.386;16.940;2022-10-16T10:17:10;26.30;;;8.07;;
21890;SDS011;11110;52.386;16.940;2022-10-16T10:19:41;23.95;;;7.55;;
21890;SDS011;11110;52.386;16.940;2022-10-16T10:22:16;20.15;;;7.43;;
21890;SDS011;11110;52.386;16.940;2022-10-16T10:24:54;29.98;;;8.82;;
21890;SDS011;11110;52.386;16.940;2022-10-16T10:27:25;28.98;;;8.68;;
21890;SDS011;11110;52.386;16.940;2022-10-16T10:30:02;28.13;;;8.02;;
21890;SDS011;11110;52.386;16.940;2022-10-16T10:32:39;26.10;;;7.97;;
21890;SDS011;11110;52.386;16.940;2022-10-16T10:35:15;21.27;;;7.75;;
21890;SDS011;11110;52.386;16.940;2022-10-16T10:37:51;24.85;;;7.82;;
21890;SDS011;11110;52.386;16.940;2022-10-16T10:40:33;25.35;;;7.25;;
21890;SDS011;11110;52.386;16.940;2022-10-16T10:43:11;24.60;;;8.60;;
21890;SDS011;11110;52.386;16.940;2022-10-16T10:45:48;23.73;;;8.63;;
21890;SDS011;11110;52.386;16.940;2022-10-16T10:48:29;15.10;;;6.72;;
21890;SDS011;11110;52.386;16.940;2022-10-16T10:51:16;24.20;;;8.30;;
21890;SDS011;11110;52.386;16.940;2022-10-16T10:53:52;28.88;;;8.68;;
21890;SDS011;11110;52.386;16.940;2022-10-16T10:56:37;30.63;;;8.23;;
21890;SDS011;11110;52.386;16.940;2022-10-16T10:59:25;26.48;;;7.88;;
21890;SDS011;11110;52.386;16.940;2022-10-16T11:02:10;24.23;;;7.35;;
21890;SDS011;11110;52.386;16.940;2022-10-16T11:04:54;26.45;;;8.13;;
21890;SDS011;11110;52.386;16.940;2022-10-16T11:07:47;25.05;;;9.77;;
21890;SDS011;11110;52.386;16.940;2022-10-16T11:10:20;22.90;;;8.60;;
21890;SDS011;11110;52.386;16.940;2022-10-16T11:12:59;29.23;;;8.02;;
21890;SDS011;11110;52.386;16.940;2022-10-16T11:15:37;31.02;;;8.52;;
21890;SDS011;11110;52.386;16.940;2022-10-16T11:18:14;17.15;;;6.72;;
21890;SDS011;11110;52.386;16.940;2022-10-16T11:20:47;21.33;;;7.35;;
21890;SDS011;11110;52.386;16.940;2022-10-16T11:23:21;26.17;;;7.45;;
21890;SDS011;11110;52.386;16.940;2022-10-16T11:25:53;19.38;;;5.95;;
21890;SDS011;11110;52.386;16.940;2022-10-16T11:28:25;41.13;;;8.23;;
21890;SDS011;11110;52.386;16.940;2022-10-16T11:31:00;22.75;;;6.22;;
21890;SDS011;11110;52.386;16.940;2022-10-16T11:33:35;18.20;;;5.22;;
21890;SDS011;11110;52.386;16.940;2022-10-16T11:36:08;28.98;;;6.53;;
21890;SDS011;11110;52.386;16.940;2022-10-16T11:38:43;25.92;;;6.30;;
21890;SDS011;11110;52.386;16.940;2022-10-16T11:41:18;15.88;;;4.90;;
21890;SDS011;11110;52.386;16.940;2022-10-16T11:44:06;22.92;;;5.97;;
21890;SDS011;11110;52.386;16.940;2022-10-16T11:46:45;22.45;;;6.10;;
21890;SDS011;11110;52.386;16.940;2022-10-16T11:49:36;24.45;;;5.93;;
21890;SDS011;11110;52.386;16.940;2022-10-16T11:52:07;22.05;;;5.35;;
21890;SDS011;11110;52.386;16.940;2022-10-16T11:54:44;21.58;;;5.25;;
21890;SDS011;11110;52.386;16.940;2022-10-16T11:57:17;23.98;;;5.78;;
21890;SDS011;11110;52.386;16.940;2022-10-16T11:59:49;21.83;;;5.30;;
21890;SDS011;11110;52.386;16.940;2022-10-16T12:02:26;26.33;;;5.85;;
21890;SDS011;11110;52.386;16.940;2022-10-16T12:05:06;20.10;;;5.07;;
21890;SDS011;11110;52.386;16.940;2022-10-16T12:07:45;20.38;;;5.07;;
21890;SDS011;11110;52.386;16.940;2022-10-16T12:10:20;22.67;;;5.60;;
21890;SDS011;11110;52.386;16.940;2022-10-16T12:12:53;17.73;;;4.88;;
21890;SDS011;11110;52.386;16.940;2022-10-16T12:15:24;19.30;;;4.53;;
21890;SDS011;11110;52.386;16.940;2022-10-16T12:18:20;31.58;;;6.07;;
21890;SDS011;11110;52.386;16.940;2022-10-16T12:20:55;18.38;;;4.90;;
21890;SDS011;11110;52.386;16.940;2022-10-16T12:23:27;20.02;;;4.82;;
21890;SDS011;11110;52.386;16.940;2022-10-16T12:25:56;23.60;;;5.32;;
21890;SDS011;11110;52.386;16.940;2022-10-16T12:28:26;18.60;;;4.63;;
21890;SDS011;11110;52.386;16.940;2022-10-16T12:30:56;24.60;;;5.78;;
21890;SDS011;11110;52.386;16.940;2022-10-16T12:33:27;16.70;;;4.45;;
21890;SDS011;11110;52.386;16.940;2022-10-16T12:36:00;42.42;;;7.40;;
21890;SDS011;11110;52.386;16.940;2022-10-16T12:38:32;25.48;;;5.50;;
21890;SDS011;11110;52.386;16.940;2022-10-16T12:41:06;14.50;;;4.22;;
21890;SDS011;11110;52.386;16.940;2022-10-16T12:43:38;9.15;;;3.72;;
21890;SDS011;11110;52.386;16.940;2022-10-16T12:49:06;18.02;;;4.82;;
21890;SDS011;11110;52.386;16.940;2022-10-16T12:51:49;13.75;;;3.95;;
21890;SDS011;11110;52.386;16.940;2022-10-16T12:54:18;18.40;;;4.25;;
21890;SDS011;11110;52.386;16.940;2022-10-16T12:57:03;19.83;;;4.25;;
21890;SDS011;11110;52.386;16.940;2022-10-16T12:59:42;18.98;;;4.18;;
21890;SDS011;11110;52.386;16.940;2022-10-16T13:02:24;21.00;;;4.80;;
21890;SDS011;11110;52.386;16.940;2022-10-16T13:05:12;19.73;;;4.25;;
21890;SDS011;11110;52.386;16.940;2022-10-16T13:07:55;14.18;;;3.70;;
21890;SDS011;11110;52.386;16.940;2022-10-16T13:10:34;19.75;;;4.22;;
21890;SDS011;11110;52.386;16.940;2022-10-16T13:13:14;23.10;;;4.93;;
21890;SDS011;11110;52.386;16.940;2022-10-16T13:15:58;12.20;;;3.55;;
21890;SDS011;11110;52.386;16.940;2022-10-16T13:18:40;17.50;;;4.65;;
21890;SDS011;11110;52.386;16.940;2022-10-16T13:21:20;21.60;;;4.50;;
21890;SDS011;11110;52.386;16.940;2022-10-16T13:24:02;19.60;;;4.68;;
21890;SDS011;11110;52.386;16.940;2022-10-16T13:26:40;14.18;;;3.97;;
21890;SDS011;11110;52.386;16.940;2022-10-16T13:29:14;16.77;;;4.35;;
21890;SDS011;11110;52.386;16.940;2022-10-16T13:31:43;15.77;;;4.05;;
21890;SDS011;11110;52.386;16.940;2022-10-16T13:34:13;20.45;;;4.80;;
21890;SDS011;11110;52.386;16.940;2022-10-16T13:36:45;18.88;;;4.63;;
21890;SDS011;11110;52.386;16.940;2022-10-16T13:39:22;15.98;;;4.30;;
21890;SDS011;11110;52.386;16.940;2022-10-16T13:41:58;19.55;;;4.38;;
21890;SDS011;11110;52.386;16.940;2022-10-16T13:44:36;13.30;;;3.80;;
21890;SDS011;11110;52.386;16.940;2022-10-16T13:47:15;28.52;;;5.75;;
21890;SDS011;11110;52.386;16.940;2022-10-16T13:49:44;3.58;;;2.42;;
21890;SDS011;11110;52.386;16.940;2022-10-16T13:52:17;13.57;;;4.32;;
21890;SDS011;11110;52.386;16.940;2022-10-16T13:54:48;17.70;;;4.78;;
21890;SDS011;11110;52.386;16.940;2022-10-16T13:57:17;26.10;;;5.68;;
21890;SDS011;11110;52.386;16.940;2022-10-16T13:59:53;20.95;;;4.55;;
21890;SDS011;11110;52.386;16.940;2022-10-16T14:02:22;13.25;;;4.07;;
21890;SDS011;11110;52.386;16.940;2022-10-16T14:04:54;12.05;;;3.95;;
21890;SDS011;11110;52.386;16.940;2022-10-16T14:07:25;23.58;;;6.43;;
21890;SDS011;11110;52.386;16.940;2022-10-16T14:09:58;17.83;;;4.60;;
21890;SDS011;11110;52.386;16.940;2022-10-16T14:12:29;20.35;;;5.18;;
21890;SDS011;11110;52.386;16.940;2022-10-16T14:14:58;18.42;;;4.78;;
21890;SDS011;11110;52.386;16.940;2022-10-16T14:17:28;19.90;;;4.90;;
21890;SDS011;11110;52.386;16.940;2022-10-16T14:19:59;23.38;;;5.40;;
21890;SDS011;11110;52.386;16.940;2022-10-16T14:22:33;19.77;;;5.15;;
21890;SDS011;11110;52.386;16.940;2022-10-16T14:25:27;15.63;;;4.95;;
21890;SDS011;11110;52.386;16.940;2022-10-16T14:27:57;14.60;;;4.60;;
21890;SDS011;11110;52.386;16.940;2022-10-16T14:30:32;15.43;;;4.32;;
21890;SDS011;11110;52.386;16.940;2022-10-16T14:33:03;19.73;;;5.18;;
21890;SDS011;11110;52.386;16.940;2022-10-16T14:35:33;20.48;;;4.90;;
21890;SDS011;11110;52.386;16.940;2022-10-16T14:38:03;16.17;;;4.53;;
21890;SDS011;11110;52.386;16.940;2022-10-16T14:40:35;25.70;;;5.68;;
21890;SDS011;11110;52.386;16.940;2022-10-16T14:43:04;10.80;;;5.03;;
21890;SDS011;11110;52.386;16.940;2022-10-16T14:45:33;22.98;;;6.97;;